Time;durP1;ratioP1;P1;durP2;ratioP2;P2;SDS_P1;SDS_P2;PMS_P1;PMS_P2;Temp;Humidity;BMP_temperature;BMP_pressure;BME280_temperature;BME280_humidity;BME280_pressure;Samples;Min_cycle;Max_cycle;Signal;HPM_P1;HPM_P2
2024/04/18 00:02:01;;;;;;;;;4.00;2.67;;;;;;;;5484786;25;44422;-51
2024/04/18 00:04:27;;;;;;;;;6.00;5.00;;;;;;;;5488456;25;43944;-48
2024/04/18 00:06:52;;;;;;;;;4.33;3.00;;;;;;;;5501552;25;43948;-48
2024/04/18 00:09:17;;;;;;;;;5.00;3.00;;;;;;;;5488827;25;45097;-49
2024/04/18 00:11:42;;;;;;;;;3.33;3.33;;;;;;;;5499835;25;44028;-48
2024/04/18 00:14:07;;;;;;;;;2.00;2.00;;;;;;;;5501155;25;43942;-51
2024/04/18 00:16:33;;;;;;;;;3.33;3.00;;;;;;;;5483436;25;44206;-48
2024/04/18 00:18:58;;;;;;;;;3.00;2.67;;;;;;;;5472307;25;44984;-48
2024/04/18 00:21:23;;;;;;;;;5.00;4.00;;;;;;;;5494936;25;43808;-49
2024/04/18 00:23:51;;;;;;;;;4.00;4.00;;;;;;;;5471794;25;43873;-49
2024/04/18 00:26:16;;;;;;;;;5.67;4.00;;;;;;;;5496112;25;43808;-48
2024/04/18 00:28:41;;;;;;;;;4.00;2.67;;;;;;;;5487932;25;45227;-48
2024/04/18 00:31:07;;;;;;;;;3.67;3.67;;;;;;;;5496535;25;43963;-50
2024/04/18 00:33:32;;;;;;;;;3.67;3.67;;;;;;;;5489096;25;43765;-48
2024/04/18 00:35:57;;;;;;;;;2.00;2.00;;;;;;;;5495158;25;43803;-51
2024/04/18 00:38:22;;;;;;;;;2.00;2.00;;;;;;;;5489810;25;44997;-48
2024/04/18 00:40:48;;;;;;;;;3.00;3.00;;;;;;;;5449447;25;43947;-51
2024/04/18 00:43:13;;;;;;;;;3.33;2.00;;;;;;;;5483821;25;43800;-48
2024/04/18 00:45:38;;;;;;;;;2.00;2.00;;;;;;;;5483718;25;43760;-49
2024/04/18 00:48:04;;;;;;;;;2.00;1.67;;;;;;;;5500522;25;44137;-48
2024/04/18 00:50:29;;;;;;;;;3.00;3.00;;;;;;;;5490753;25;44382;-48
2024/04/18 00:52:54;;;;;;;;;3.00;2.00;;;;;;;;5500765;25;43940;-48
2024/04/18 00:55:20;;;;;;;;;4.00;4.00;;;;;;;;5485707;25;44038;-49
2024/04/18 00:57:45;;;;;;;;;4.00;4.00;;;;;;;;5488227;25;45024;-49
2024/04/18 01:00:11;;;;;;;;;6.00;5.00;;;;;;;;5447770;25;43725;-48
2024/04/18 01:02:36;;;;;;;;;5.00;5.00;;;;;;;;5471988;25;44377;-49
2024/04/18 01:05:01;;;;;;;;;4.00;4.00;;;;;;;;5487396;25;43938;-50
2024/04/18 01:07:27;;;;;;;;;4.00;4.00;;;;;;;;5457312;25;46169;-51
2024/04/18 01:09:52;;;;;;;;;4.33;4.00;;;;;;;;5451673;25;43889;-51
2024/04/18 01:12:17;;;;;;;;;3.00;3.00;;;;;;;;5489966;25;43874;-50
2024/04/18 01:14:42;;;;;;;;;4.00;4.00;;;;;;;;5494820;25;44305;-52
2024/04/18 01:17:07;;;;;;;;;5.00;5.00;;;;;;;;5445214;25;46752;-50
2024/04/18 01:19:33;;;;;;;;;4.67;4.67;;;;;;;;5477337;25;44082;-49
2024/04/18 01:21:59;;;;;;;;;3.67;3.67;;;;;;;;5493870;25;44038;-52
2024/04/18 01:24:25;;;;;;;;;4.00;4.00;;;;;;;;5494271;25;44136;-48
2024/04/18 01:26:50;;;;;;;;;6.00;6.00;;;;;;;;5485988;25;44785;-50
2024/04/18 01:29:15;;;;;;;;;4.00;4.00;;;;;;;;5453504;25;43999;-48
2024/04/18 01:31:40;;;;;;;;;3.00;3.00;;;;;;;;5494157;25;43968;-52
2024/04/18 01:34:05;;;;;;;;;5.33;4.67;;;;;;;;5492818;25;43988;-50
2024/04/18 01:36:31;;;;;;;;;4.00;4.00;;;;;;;;5493859;25;44220;-50
2024/04/18 01:38:56;;;;;;;;;4.00;4.00;;;;;;;;5494166;25;43797;-51
2024/04/18 01:41:21;;;;;;;;;4.67;4.67;;;;;;;;5486597;25;44014;-48
2024/04/18 01:43:46;;;;;;;;;4.00;4.00;;;;;;;;5486527;25;44229;-48
2024/04/18 01:46:12;;;;;;;;;4.00;3.33;;;;;;;;5502585;25;44219;-50
2024/04/18 01:48:37;;;;;;;;;4.33;3.00;;;;;;;;5489344;25;43764;-48
2024/04/18 01:51:03;;;;;;;;;2.00;2.00;;;;;;;;5498468;25;43919;-48
2024/04/18 01:53:29;;;;;;;;;2.00;2.00;;;;;;;;5502596;25;44094;-49
2024/04/18 01:55:54;;;;;;;;;5.00;3.00;;;;;;;;5494466;25;45587;-48
2024/04/18 01:58:19;;;;;;;;;5.00;3.33;;;;;;;;5492616;25;44024;-49
2024/04/18 02:00:44;;;;;;;;;3.00;3.00;;;;;;;;5480950;25;43656;-49
2024/04/18 02:03:09;;;;;;;;;2.33;2.33;;;;;;;;5479924;25;43908;-49
2024/04/18 02:05:35;;;;;;;;;2.00;2.00;;;;;;;;5490472;25;44825;-50
2024/04/18 02:08:00;;;;;;;;;1.00;1.00;;;;;;;;5468392;25;43977;-51
2024/04/18 02:10:26;;;;;;;;;2.00;2.00;;;;;;;;5494124;25;43768;-48
2024/04/18 02:12:51;;;;;;;;;2.00;2.00;;;;;;;;5483646;25;44235;-49
2024/04/18 02:15:16;;;;;;;;;2.00;2.00;;;;;;;;5494950;25;44284;-50
2024/04/18 02:17:41;;;;;;;;;2.33;2.00;;;;;;;;5474773;25;43908;-51
2024/04/18 02:20:07;;;;;;;;;2.00;2.00;;;;;;;;5497367;25;44351;-51
2024/04/18 02:22:32;;;;;;;;;3.00;3.00;;;;;;;;5476998;25;43821;-49
2024/04/18 02:25:03;;;;;;;;;3.00;3.00;;;;;;;;5496039;25;44017;-49
2024/04/18 02:27:29;;;;;;;;;2.33;2.33;;;;;;;;5476666;25;43960;-51
2024/04/18 02:29:54;;;;;;;;;3.00;2.33;;;;;;;;5495240;25;43968;-50
2024/04/18 02:32:19;;;;;;;;;3.67;3.00;;;;;;;;5501355;25;43828;-49
2024/04/18 02:34:44;;;;;;;;;4.00;4.00;;;;;;;;5480276;25;43822;-48
2024/04/18 02:37:09;;;;;;;;;3.00;3.00;;;;;;;;5484462;25;44259;-48
2024/04/18 02:39:36;;;;;;;;;1.67;1.67;;;;;;;;5482407;25;43943;-47
2024/04/18 02:42:01;;;;;;;;;3.33;3.33;;;;;;;;5500461;25;44011;-48
2024/04/18 02:44:27;;;;;;;;;7.00;4.67;;;;;;;;5480821;25;44055;-47
2024/04/18 02:46:52;;;;;;;;;5.33;3.67;;;;;;;;5489092;25;44003;-51
2024/04/18 02:49:17;;;;;;;;;6.33;4.00;;;;;;;;5497146;25;43919;-48
2024/04/18 02:51:42;;;;;;;;;9.00;6.00;;;;;;;;5494883;25;44340;-48
2024/04/18 02:54:08;;;;;;;;;5.33;4.00;;;;;;;;5502064;25;44996;-52
2024/04/18 02:56:33;;;;;;;;;8.33;6.67;;;;;;;;5486748;25;44485;-48
2024/04/18 02:58:58;;;;;;;;;5.00;5.00;;;;;;;;5494084;25;44333;-50
2024/04/18 03:01:23;;;;;;;;;6.00;3.33;;;;;;;;5484097;25;44558;-50
2024/04/18 03:03:49;;;;;;;;;5.00;5.00;;;;;;;;5487185;25;43910;-49
2024/04/18 03:06:14;;;;;;;;;5.00;5.00;;;;;;;;5502036;25;44018;-48
2024/04/18 03:08:39;;;;;;;;;5.33;4.00;;;;;;;;5500656;25;43905;-49
2024/04/18 03:11:04;;;;;;;;;3.00;3.00;;;;;;;;5490057;25;44234;-49
2024/04/18 03:13:29;;;;;;;;;3.67;3.67;;;;;;;;5486404;25;44907;-48
2024/04/18 03:15:55;;;;;;;;;4.00;4.00;;;;;;;;5502779;25;43862;-48
2024/04/18 03:18:20;;;;;;;;;4.00;3.00;;;;;;;;5485283;25;43864;-49
2024/04/18 03:20:54;;;;;;;;;4.67;3.67;;;;;;;;5495267;25;45287;-48
2024/04/18 03:23:20;;;;;;;;;6.67;3.67;;;;;;;;5489598;25;45147;-48
2024/04/18 03:25:47;;;;;;;;;3.00;2.33;;;;;;;;5441663;25;44399;-48
2024/04/18 03:28:12;;;;;;;;;4.00;3.33;;;;;;;;5497036;25;44055;-48
2024/04/18 03:30:38;;;;;;;;;4.00;4.00;;;;;;;;5489752;25;43868;-51
2024/04/18 03:33:03;;;;;;;;;6.00;4.33;;;;;;;;5460070;25;45066;-48
2024/04/18 03:35:29;;;;;;;;;4.00;4.00;;;;;;;;5475742;25;43740;-47
2024/04/18 03:37:54;;;;;;;;;5.00;4.67;;;;;;;;5497937;25;43654;-49
2024/04/18 03:40:19;;;;;;;;;3.00;3.00;;;;;;;;5480520;25;43961;-51
2024/04/18 03:42:44;;;;;;;;;3.00;3.00;;;;;;;;5494541;25;44832;-48
2024/04/18 03:45:10;;;;;;;;;4.00;3.33;;;;;;;;5491302;25;43649;-49
2024/04/18 03:47:35;;;;;;;;;4.67;4.67;;;;;;;;5485699;25;44165;-51
2024/04/18 03:50:00;;;;;;;;;4.00;4.00;;;;;;;;5493560;25;43866;-48
2024/04/18 03:52:25;;;;;;;;;7.00;5.00;;;;;;;;5488797;25;44848;-50
2024/04/18 03:54:50;;;;;;;;;9.00;5.33;;;;;;;;5490139;25;43899;-49
2024/04/18 03:57:15;;;;;;;;;7.33;5.00;;;;;;;;5483256;25;44110;-53
2024/04/18 03:59:41;;;;;;;;;4.33;4.00;;;;;;;;5476550;25;43881;-51
2024/04/18 04:02:06;;;;;;;;;3.00;3.00;;;;;;;;5463967;25;45307;-50
2024/04/18 04:04:31;;;;;;;;;5.00;4.33;;;;;;;;5501113;25;43788;-49
2024/04/18 04:06:56;;;;;;;;;3.67;3.67;;;;;;;;5485773;25;43996;-52
2024/04/18 04:09:21;;;;;;;;;4.33;4.33;;;;;;;;5490447;25;44790;-49
2024/04/18 04:11:46;;;;;;;;;3.00;3.00;;;;;;;;5485998;25;44093;-48
2024/04/18 04:14:12;;;;;;;;;2.67;2.67;;;;;;;;5488244;25;44034;-47
2024/04/18 04:16:37;;;;;;;;;4.33;4.33;;;;;;;;5499571;25;44029;-50
2024/04/18 04:19:02;;;;;;;;;5.00;4.00;;;;;;;;5485858;25;44038;-48
2024/04/18 04:21:27;;;;;;;;;4.33;4.00;;;;;;;;5492828;25;43915;-47
2024/04/18 04:23:52;;;;;;;;;5.00;5.00;;;;;;;;5485799;25;43865;-48
2024/04/18 04:26:19;;;;;;;;;4.00;4.00;;;;;;;;5484064;25;43810;-51
2024/04/18 04:28:44;;;;;;;;;4.00;4.00;;;;;;;;5498169;25;43973;-53
2024/04/18 04:31:09;;;;;;;;;9.00;5.00;;;;;;;;5496700;25;43881;-50
2024/04/18 04:33:34;;;;;;;;;7.00;5.00;;;;;;;;5496603;25;43904;-48
2024/04/18 04:36:00;;;;;;;;;7.33;6.33;;;;;;;;5499676;25;43888;-48
2024/04/18 04:38:25;;;;;;;;;5.00;5.00;;;;;;;;5493335;25;44051;-48
2024/04/18 04:40:50;;;;;;;;;8.00;6.00;;;;;;;;5485734;25;43953;-50
2024/04/18 04:43:15;;;;;;;;;8.00;7.00;;;;;;;;5471185;25;43934;-48
2024/04/18 04:45:41;;;;;;;;;5.67;5.67;;;;;;;;5446824;25;44103;-51
2024/04/18 04:48:06;;;;;;;;;9.00;7.67;;;;;;;;5467242;25;43903;-51
2024/04/18 04:50:31;;;;;;;;;5.33;4.67;;;;;;;;5498159;25;44987;-49
2024/04/18 04:52:56;;;;;;;;;5.67;5.67;;;;;;;;5492226;25;43833;-48
2024/04/18 04:55:22;;;;;;;;;11.00;8.00;;;;;;;;5485357;25;43923;-49
2024/04/18 04:57:47;;;;;;;;;9.00;8.33;;;;;;;;5501115;25;43902;-50
2024/04/18 05:00:12;;;;;;;;;1.33;1.00;;;;;;;;5487589;25;45026;-49
2024/04/18 05:02:37;;;;;;;;;7.33;7.33;;;;;;;;5503130;25;43772;-50
2024/04/18 05:05:03;;;;;;;;;8.33;8.00;;;;;;;;5487501;25;43943;-50
2024/04/18 05:07:28;;;;;;;;;8.00;8.00;;;;;;;;5486772;25;44096;-51
2024/04/18 05:09:53;;;;;;;;;6.33;6.33;;;;;;;;5501810;25;47076;-50
2024/04/18 05:12:18;;;;;;;;;7.33;7.33;;;;;;;;5490252;25;43880;-48
2024/04/18 05:14:43;;;;;;;;;6.00;4.00;;;;;;;;5501624;25;43884;-51
2024/04/18 05:17:09;;;;;;;;;6.00;6.00;;;;;;;;5476714;25;43877;-50
2024/04/18 05:19:34;;;;;;;;;6.33;6.33;;;;;;;;5495457;25;44850;-48
2024/04/18 05:21:59;;;;;;;;;9.33;6.00;;;;;;;;5486891;25;44017;-48
2024/04/18 05:24:24;;;;;;;;;5.67;5.00;;;;;;;;5499927;25;43742;-49
2024/04/18 05:26:49;;;;;;;;;8.00;8.00;;;;;;;;5486984;25;43639;-48
2024/04/18 05:32:02;;;;;;;;;5.00;5.00;;;;;;;;5491273;25;43733;-49
2024/04/18 05:34:30;;;;;;;;;10.00;7.33;;;;;;;;5498916;25;43912;-48
2024/04/18 05:36:55;;;;;;;;;8.00;7.33;;;;;;;;5476240;25;43847;-51
2024/04/18 05:39:20;;;;;;;;;7.67;7.67;;;;;;;;5462510;25;44269;-49
2024/04/18 05:41:45;;;;;;;;;6.33;6.33;;;;;;;;5490100;25;43899;-50
2024/04/18 05:44:10;;;;;;;;;9.33;6.00;;;;;;;;5488041;25;43726;-50
2024/04/18 05:46:36;;;;;;;;;8.00;6.33;;;;;;;;5489474;25;44356;-50
2024/04/18 05:49:01;;;;;;;;;8.00;5.00;;;;;;;;5484317;25;44878;-49
2024/04/18 05:51:26;;;;;;;;;8.33;8.00;;;;;;;;5501141;25;43882;-51
2024/04/18 05:53:51;;;;;;;;;6.67;6.67;;;;;;;;5497121;25;44037;-51
2024/04/18 05:56:16;;;;;;;;;8.00;8.00;;;;;;;;5503191;25;44162;-50
2024/04/18 05:58:44;;;;;;;;;8.67;8.00;;;;;;;;5456308;25;44691;-52
2024/04/18 06:01:09;;;;;;;;;7.33;7.00;;;;;;;;5501728;25;44272;-50
2024/04/18 06:03:35;;;;;;;;;8.33;8.33;;;;;;;;5498953;25;43889;-48
2024/04/18 06:06:00;;;;;;;;;8.33;8.33;;;;;;;;5482646;25;43760;-49
2024/04/18 06:08:25;;;;;;;;;8.33;8.33;;;;;;;;5487755;25;43911;-48
2024/04/18 06:10:51;;;;;;;;;10.00;8.00;;;;;;;;5469257;25;43880;-51
2024/04/18 06:13:17;;;;;;;;;6.00;6.00;;;;;;;;5487931;25;43730;-51
2024/04/18 06:15:43;;;;;;;;;7.00;7.00;;;;;;;;5484913;25;44227;-49
2024/04/18 06:18:08;;;;;;;;;8.33;7.33;;;;;;;;5502426;25;44998;-51
2024/04/18 06:20:40;;;;;;;;;9.33;9.33;;;;;;;;5467770;25;44384;-51
2024/04/18 06:23:05;;;;;;;;;9.67;9.33;;;;;;;;5498897;25;44051;-51
2024/04/18 06:25:31;;;;;;;;;10.67;10.33;;;;;;;;5485058;25;43923;-50
2024/04/18 06:27:56;;;;;;;;;9.67;9.67;;;;;;;;5498987;25;45926;-50
2024/04/18 06:30:21;;;;;;;;;10.00;7.33;;;;;;;;5475258;25;43830;-51
2024/04/18 06:32:46;;;;;;;;;10.33;8.33;;;;;;;;5497475;25;44090;-53
2024/04/18 06:35:11;;;;;;;;;9.33;4.00;;;;;;;;5456403;25;43831;-51
2024/04/18 06:37:36;;;;;;;;;9.33;4.33;;;;;;;;5484016;25;45068;-52
2024/04/18 06:40:02;;;;;;;;;6.33;5.33;;;;;;;;5502894;25;44122;-53
2024/04/18 06:42:27;;;;;;;;;4.00;4.00;;;;;;;;5498233;25;43947;-53
2024/04/18 06:44:52;;;;;;;;;7.00;6.67;;;;;;;;5499538;25;43870;-53
2024/04/18 06:47:18;;;;;;;;;4.00;4.00;;;;;;;;5502056;25;45017;-53
2024/04/18 06:49:43;;;;;;;;;5.00;5.00;;;;;;;;5494423;25;43884;-52
2024/04/18 06:52:08;;;;;;;;;5.00;5.00;;;;;;;;5463868;25;43929;-53
2024/04/18 06:54:33;;;;;;;;;4.00;4.00;;;;;;;;5492326;25;43896;-54
2024/04/18 06:56:58;;;;;;;;;4.00;4.00;;;;;;;;5500495;25;46147;-51
2024/04/18 06:59:24;;;;;;;;;4.33;4.00;;;;;;;;5500626;25;44027;-52
2024/04/18 07:01:49;;;;;;;;;6.33;5.00;;;;;;;;5496519;25;44057;-54
2024/04/18 07:04:14;;;;;;;;;7.67;7.00;;;;;;;;5491445;25;43905;-53
2024/04/18 07:06:39;;;;;;;;;6.67;6.00;;;;;;;;5483298;25;44976;-51
2024/04/18 07:09:04;;;;;;;;;7.00;7.00;;;;;;;;5491411;25;43957;-52
2024/04/18 07:11:30;;;;;;;;;5.00;4.67;;;;;;;;5484050;25;43794;-53
2024/04/18 07:13:55;;;;;;;;;4.33;4.00;;;;;;;;5483939;25;43894;-51
2024/04/18 07:16:20;;;;;;;;;7.67;6.00;;;;;;;;5490319;25;44370;-53
2024/04/18 07:18:45;;;;;;;;;7.00;7.00;;;;;;;;5474940;25;44489;-51
2024/04/18 07:21:11;;;;;;;;;6.00;6.00;;;;;;;;5494250;25;43821;-52
2024/04/18 07:23:36;;;;;;;;;5.33;5.33;;;;;;;;5466056;25;44057;-52
2024/04/18 07:26:02;;;;;;;;;5.00;5.00;;;;;;;;5487540;25;43959;-55
2024/04/18 07:28:27;;;;;;;;;8.67;6.33;;;;;;;;5470753;25;43875;-51
2024/04/18 07:30:52;;;;;;;;;5.33;5.33;;;;;;;;5501050;25;43780;-54
2024/04/18 07:33:18;;;;;;;;;4.67;4.67;;;;;;;;5483857;25;43830;-52
2024/04/18 07:35:52;;;;;;;;;7.00;7.00;;;;;;;;5495417;25;44741;-54
2024/04/18 07:38:18;;;;;;;;;5.00;4.00;;;;;;;;5489704;25;43939;-54
2024/04/18 07:40:43;;;;;;;;;5.33;5.33;;;;;;;;5486875;25;44297;-53
2024/04/18 07:43:08;;;;;;;;;3.00;3.00;;;;;;;;5489657;25;43868;-52
2024/04/18 07:45:35;;;;;;;;;6.50;4.00;;;;;;;;5490947;25;44135;-53
2024/04/18 07:48:00;;;;;;;;;5.00;5.00;;;;;;;;5488966;25;43944;-53
2024/04/18 07:50:25;;;;;;;;;5.67;5.00;;;;;;;;5462198;25;44163;-53
2024/04/18 07:52:50;;;;;;;;;6.67;6.00;;;;;;;;5489893;25;44306;-52
2024/04/18 07:55:16;;;;;;;;;6.67;6.33;;;;;;;;5494960;25;44195;-53
2024/04/18 07:57:42;;;;;;;;;7.00;6.00;;;;;;;;5490716;25;43783;-53
2024/04/18 08:00:07;;;;;;;;;7.00;7.00;;;;;;;;5446440;25;44015;-54
2024/04/18 08:02:32;;;;;;;;;7.00;7.00;;;;;;;;5492394;25;44281;-54
2024/04/18 08:04:57;;;;;;;;;7.67;6.33;;;;;;;;5490624;25;43930;-55
2024/04/18 08:07:23;;;;;;;;;9.67;7.33;;;;;;;;5491177;25;43947;-55
2024/04/18 08:09:48;;;;;;;;;7.33;7.00;;;;;;;;5500720;25;43931;-54
2024/04/18 08:12:13;;;;;;;;;8.00;7.00;;;;;;;;5481974;25;43901;-54
2024/04/18 08:14:38;;;;;;;;;5.67;5.67;;;;;;;;5496296;25;44006;-54
2024/04/18 08:17:04;;;;;;;;;5.00;5.00;;;;;;;;5492499;25;44032;-54
2024/04/18 08:19:29;;;;;;;;;6.25;6.25;;;;;;;;5491116;25;43920;-54
2024/04/18 08:21:54;;;;;;;;;4.50;4.00;;;;;;;;5492141;25;43945;-55
2024/04/18 08:24:27;;;;;;;;;7.25;4.00;;;;;;;;5490250;25;45789;-54
2024/04/18 08:26:53;;;;;;;;;4.00;4.00;;;;;;;;5491326;25;44070;-53
2024/04/18 08:29:22;;;;;;;;;7.00;5.67;;;;;;;;5467948;25;44409;-54
2024/04/18 08:31:47;;;;;;;;;6.00;6.00;;;;;;;;5494343;25;43869;-51
2024/04/18 08:34:12;;;;;;;;;7.00;7.00;;;;;;;;5448564;25;45731;-54
2024/04/18 08:36:37;;;;;;;;;7.00;7.00;;;;;;;;5486250;25;44091;-51
2024/04/18 08:39:03;;;;;;;;;7.67;6.33;;;;;;;;5459215;25;43744;-51
2024/04/18 08:41:29;;;;;;;;;10.00;7.67;;;;;;;;5500168;25;43874;-54
2024/04/18 08:43:55;;;;;;;;;6.33;6.33;;;;;;;;5486055;25;43855;-53
2024/04/18 08:46:21;;;;;;;;;7.00;7.00;;;;;;;;5437923;25;44852;-52
2024/04/18 08:48:46;;;;;;;;;7.67;6.00;;;;;;;;5498556;25;43908;-53
2024/04/18 08:51:13;;;;;;;;;8.67;8.33;;;;;;;;5494133;25;43862;-53
2024/04/18 08:53:39;;;;;;;;;6.00;6.00;;;;;;;;5497907;25;45214;-52
2024/04/18 08:56:07;;;;;;;;;6.67;6.67;;;;;;;;5477360;25;43834;-51
2024/04/18 08:58:33;;;;;;;;;8.33;8.33;;;;;;;;5482187;25;43812;-53
2024/04/18 09:00:58;;;;;;;;;6.00;6.00;;;;;;;;5498975;25;43948;-54
2024/04/18 09:03:24;;;;;;;;;7.00;5.33;;;;;;;;5499579;25;44958;-51
2024/04/18 09:05:49;;;;;;;;;7.00;7.00;;;;;;;;5454131;25;44418;-52
2024/04/18 09:08:14;;;;;;;;;3.00;3.00;;;;;;;;5470989;25;44290;-53
2024/04/18 09:10:40;;;;;;;;;5.33;5.33;;;;;;;;5467534;25;44203;-53
2024/04/18 09:13:05;;;;;;;;;6.33;6.33;;;;;;;;5495913;25;44999;-54
2024/04/18 09:15:30;;;;;;;;;6.67;5.00;;;;;;;;5488924;25;43968;-52
2024/04/18 09:18:00;;;;;;;;;5.00;5.00;;;;;;;;5472601;25;44021;-54
2024/04/18 09:20:25;;;;;;;;;5.67;3.67;;;;;;;;5455151;25;44387;-54
2024/04/18 09:22:50;;;;;;;;;4.67;4.67;;;;;;;;5453162;25;43901;-54
2024/04/18 09:25:15;;;;;;;;;8.00;4.00;;;;;;;;5498802;25;43805;-54
2024/04/18 09:27:41;;;;;;;;;4.00;3.33;;;;;;;;5489503;25;44157;-54
2024/04/18 09:30:06;;;;;;;;;5.00;4.00;;;;;;;;5488451;25;43915;-54
2024/04/18 09:32:32;;;;;;;;;3.25;3.25;;;;;;;;5479947;25;44020;-54
2024/04/18 09:34:57;;;;;;;;;5.00;5.00;;;;;;;;5483197;25;43870;-53
2024/04/18 09:37:25;;;;;;;;;3.00;3.00;;;;;;;;5485075;25;44066;-54
2024/04/18 09:39:55;;;;;;;;;4.00;4.00;;;;;;;;5487162;25;43857;-54
2024/04/18 09:42:53;;;;;;;;;7.00;6.33;;;;;;;;5485015;25;44227;-53
2024/04/18 09:45:19;;;;;;;;;6.00;6.00;;;;;;;;5395580;25;43859;-53
2024/04/18 09:47:45;;;;;;;;;5.67;4.33;;;;;;;;5486805;25;43943;-54
2024/04/18 09:50:12;;;;;;;;;5.67;5.67;;;;;;;;5496513;25;44086;-51
2024/04/18 09:52:38;;;;;;;;;4.00;4.00;;;;;;;;5486295;25;44050;-53
2024/04/18 09:55:04;;;;;;;;;4.00;4.00;;;;;;;;5502671;25;44484;-51
2024/04/18 09:57:29;;;;;;;;;4.67;4.67;;;;;;;;5501012;25;44064;-51
2024/04/18 09:59:55;;;;;;;;;5.33;5.33;;;;;;;;5501301;25;43983;-52
2024/04/18 10:02:21;;;;;;;;;5.33;4.67;;;;;;;;5502237;25;43994;-54
2024/04/18 10:04:47;;;;;;;;;4.33;4.33;;;;;;;;5463009;25;43930;-53
2024/04/18 10:07:13;;;;;;;;;7.00;7.00;;;;;;;;5480646;25;44023;-53
2024/04/18 10:09:39;;;;;;;;;5.00;5.00;;;;;;;;5496002;25;43883;-53
2024/04/18 10:12:06;;;;;;;;;6.00;5.00;;;;;;;;5491879;25;45292;-52
2024/04/18 10:14:31;;;;;;;;;3.00;3.00;;;;;;;;5498052;25;43807;-55
2024/04/18 10:16:56;;;;;;;;;3.75;3.75;;;;;;;;5486367;25;44100;-53
2024/04/18 10:19:22;;;;;;;;;4.33;4.33;;;;;;;;5481914;25;44051;-54
2024/04/18 10:21:57;;;;;;;;;3.75;3.75;;;;;;;;5490244;25;45218;-54
2024/04/18 10:24:23;;;;;;;;;2.75;2.75;;;;;;;;5490302;25;43953;-54
2024/04/18 10:26:57;;;;;;;;;4.00;4.00;;;;;;;;5472332;25;43917;-54
2024/04/18 10:29:26;;;;;;;;;4.33;3.33;;;;;;;;5494000;25;44130;-52
2024/04/18 10:31:55;;;;;;;;;4.33;3.33;;;;;;;;5485591;25;44257;-54
2024/04/18 10:34:23;;;;;;;;;4.00;4.00;;;;;;;;5487060;25;43953;-50
2024/04/18 10:36:49;;;;;;;;;4.00;4.00;;;;;;;;5484554;25;43943;-53
2024/04/18 10:39:32;;;;;;;;;5.00;5.00;;;;;;;;5474017;25;43945;-53
2024/04/18 10:41:59;;;;;;;;;6.33;6.00;;;;;;;;5497217;25;45243;-54
2024/04/18 10:44:24;;;;;;;;;6.33;6.33;;;;;;;;5498704;25;43888;-51
2024/04/18 10:46:51;;;;;;;;;6.00;6.00;;;;;;;;5486440;25;43942;-53
2024/04/18 10:49:17;;;;;;;;;7.00;7.00;;;;;;;;5500565;25;44385;-54
2024/04/18 10:51:43;;;;;;;;;4.00;3.00;;;;;;;;5498600;25;45837;-55
2024/04/18 10:54:11;;;;;;;;;10.67;9.67;;;;;;;;5502023;25;43745;-54
2024/04/18 10:56:36;;;;;;;;;8.00;8.00;;;;;;;;5498547;25;43891;-54
2024/04/18 10:59:01;;;;;;;;;6.25;4.50;;;;;;;;5496611;25;44013;-55
2024/04/18 11:01:26;;;;;;;;;10.00;8.25;;;;;;;;5492410;25;45784;-53
2024/04/18 11:03:52;;;;;;;;;6.50;6.50;;;;;;;;5485642;25;43647;-54
2024/04/18 11:06:17;;;;;;;;;4.25;3.75;;;;;;;;5480528;25;44051;-54
2024/04/18 11:08:45;;;;;;;;;6.33;6.33;;;;;;;;5485223;25;43830;-54
2024/04/18 11:11:11;;;;;;;;;9.00;9.00;;;;;;;;5491648;25;43956;-52
2024/04/18 11:13:36;;;;;;;;;7.00;7.00;;;;;;;;5499381;25;43946;-52
2024/04/18 11:16:01;;;;;;;;;4.00;4.00;;;;;;;;5499088;25;44118;-54
2024/04/18 11:18:27;;;;;;;;;3.00;3.00;;;;;;;;5499190;25;44279;-54
2024/04/18 11:20:52;;;;;;;;;9.33;9.33;;;;;;;;5496517;25;44157;-53
2024/04/18 11:23:21;;;;;;;;;3.25;3.25;;;;;;;;5499382;25;44115;-53
2024/04/18 11:25:46;;;;;;;;;6.50;4.00;;;;;;;;5445299;25;44434;-53
2024/04/18 11:28:12;;;;;;;;;9.67;7.33;;;;;;;;5499879;25;44633;-54
2024/04/18 11:30:39;;;;;;;;;10.33;10.00;;;;;;;;5499122;25;44884;-52
2024/04/18 11:33:04;;;;;;;;;6.00;4.00;;;;;;;;5476738;25;43897;-53
2024/04/18 11:35:30;;;;;;;;;4.50;4.50;;;;;;;;5497694;25;43992;-52
2024/04/18 11:37:55;;;;;;;;;6.00;5.33;;;;;;;;5502044;25;43828;-52
2024/04/18 11:40:20;;;;;;;;;7.00;7.00;;;;;;;;5500039;25;44294;-53
2024/04/18 11:42:45;;;;;;;;;9.67;9.00;;;;;;;;5485968;25;43969;-51
2024/04/18 11:45:11;;;;;;;;;6.67;5.67;;;;;;;;5505093;25;44177;-53
2024/04/18 11:47:36;;;;;;;;;6.00;6.00;;;;;;;;5469339;25;43962;-53
2024/04/18 11:50:02;;;;;;;;;4.00;4.00;;;;;;;;5506056;25;45243;-51
2024/04/18 11:52:27;;;;;;;;;5.00;5.00;;;;;;;;5502156;25;44105;-54
2024/04/18 11:54:52;;;;;;;;;44.00;37.33;;;;;;;;5454077;25;43991;-56
2024/04/18 11:57:17;;;;;;;;;41.67;34.67;;;;;;;;5525238;25;43911;-53
2024/04/18 11:59:43;;;;;;;;;4.00;4.00;;;;;;;;5482023;25;45156;-52
2024/04/18 12:02:09;;;;;;;;;7.33;7.33;;;;;;;;5502702;25;43978;-54
2024/04/18 12:04:34;;;;;;;;;3.00;3.00;;;;;;;;5488219;25;43585;-54
2024/04/18 12:06:59;;;;;;;;;5.00;5.00;;;;;;;;5519575;25;44002;-53
2024/04/18 12:09:25;;;;;;;;;2.25;2.25;;;;;;;;5509482;25;44015;-54
2024/04/18 12:11:50;;;;;;;;;7.75;5.00;;;;;;;;5491944;25;43951;-55
2024/04/18 12:14:15;;;;;;;;;4.75;4.75;;;;;;;;5468637;25;43842;-55
2024/04/18 12:16:40;;;;;;;;;2.25;2.25;;;;;;;;5511618;25;43871;-55
2024/04/18 12:19:05;;;;;;;;;4.50;4.00;;;;;;;;5503997;25;44765;-54
2024/04/18 12:21:31;;;;;;;;;5.50;4.00;;;;;;;;5493703;25;43804;-57
2024/04/18 12:23:56;;;;;;;;;4.00;4.00;;;;;;;;5520238;25;44111;-52
2024/04/18 12:26:21;;;;;;;;;4.25;4.00;;;;;;;;5506209;25;43815;-55
2024/04/18 12:28:46;;;;;;;;;5.00;4.00;;;;;;;;5485324;25;43918;-54
2024/04/18 12:31:12;;;;;;;;;5.75;4.00;;;;;;;;5505873;25;44301;-54
2024/04/18 12:33:37;;;;;;;;;4.00;4.00;;;;;;;;5478259;25;44091;-54
2024/04/18 12:36:03;;;;;;;;;4.25;4.25;;;;;;;;5523672;25;44030;-54
2024/04/18 12:38:28;;;;;;;;;5.25;3.25;;;;;;;;5510710;25;45138;-54
2024/04/18 12:40:53;;;;;;;;;7.00;5.00;;;;;;;;5500479;25;44061;-53
2024/04/18 12:43:18;;;;;;;;;4.67;4.67;;;;;;;;5501248;25;44546;-54
2024/04/18 12:45:43;;;;;;;;;3.33;3.33;;;;;;;;5499848;25;43938;-51
2024/04/18 12:48:09;;;;;;;;;4.00;4.00;;;;;;;;5501569;25;43954;-51
2024/04/18 12:50:34;;;;;;;;;5.00;5.00;;;;;;;;5476293;25;44436;-52
2024/04/18 12:52:59;;;;;;;;;4.00;4.00;;;;;;;;5501167;25;44082;-52
2024/04/18 12:55:24;;;;;;;;;4.50;4.50;;;;;;;;5467714;25;43951;-54
2024/04/18 12:57:50;;;;;;;;;3.00;3.00;;;;;;;;5485855;25;45536;-53
2024/04/18 13:00:16;;;;;;;;;7.00;6.00;;;;;;;;5485241;25;44084;-51
2024/04/18 13:02:41;;;;;;;;;6.00;4.00;;;;;;;;5493736;25;44088;-53
2024/04/18 13:05:06;;;;;;;;;4.00;4.00;;;;;;;;5491922;25;44202;-50
2024/04/18 13:07:32;;;;;;;;;6.00;4.00;;;;;;;;5483289;25;45278;-53
2024/04/18 13:09:57;;;;;;;;;3.33;3.33;;;;;;;;5495469;25;44012;-51
2024/04/18 13:12:22;;;;;;;;;4.33;4.33;;;;;;;;5492264;25;44307;-53
2024/04/18 13:14:47;;;;;;;;;5.00;3.33;;;;;;;;5463589;25;44211;-53
2024/04/18 13:17:12;;;;;;;;;4.67;4.00;;;;;;;;5491302;25;44596;-52
2024/04/18 13:19:38;;;;;;;;;5.00;4.00;;;;;;;;5485497;25;43946;-52
2024/04/18 13:22:03;;;;;;;;;5.00;5.00;;;;;;;;5501122;25;44013;-50
2024/04/18 13:24:28;;;;;;;;;4.00;4.00;;;;;;;;5493342;25;44007;-52
2024/04/18 13:26:53;;;;;;;;;4.00;4.00;;;;;;;;5495393;25;44900;-53
2024/04/18 13:29:19;;;;;;;;;4.33;4.33;;;;;;;;5501809;25;43987;-53
2024/04/18 13:31:44;;;;;;;;;4.00;4.00;;;;;;;;5484463;25;43958;-51
2024/04/18 13:34:10;;;;;;;;;4.33;4.33;;;;;;;;5472178;25;44104;-51
2024/04/18 13:36:35;;;;;;;;;5.67;4.00;;;;;;;;5465803;25;44068;-53
2024/04/18 13:39:01;;;;;;;;;4.00;4.00;;;;;;;;5472045;25;43867;-53
2024/04/18 13:41:27;;;;;;;;;4.67;4.67;;;;;;;;5496131;25;44080;-52
2024/04/18 13:43:55;;;;;;;;;3.67;3.67;;;;;;;;5458021;25;44052;-52
2024/04/18 13:46:21;;;;;;;;;6.00;3.33;;;;;;;;5467169;25;45754;-51
2024/04/18 13:48:52;;;;;;;;;3.67;3.67;;;;;;;;5457348;25;43958;-50
2024/04/18 13:51:20;;;;;;;;;3.00;3.00;;;;;;;;5456733;25;43780;-53
2024/04/18 13:53:51;;;;;;;;;4.67;3.00;;;;;;;;5469347;25;43979;-53
2024/04/18 13:56:16;;;;;;;;;5.00;3.67;;;;;;;;5468937;25;45489;-53
2024/04/18 13:58:42;;;;;;;;;3.67;3.67;;;;;;;;5496240;25;43934;-50
2024/04/18 14:01:07;;;;;;;;;5.00;4.00;;;;;;;;5491754;25;43832;-53
2024/04/18 14:03:32;;;;;;;;;2.67;2.67;;;;;;;;5495012;25;43892;-52
2024/04/18 14:05:57;;;;;;;;;3.00;3.00;;;;;;;;5487975;25;45294;-53
2024/04/18 14:08:22;;;;;;;;;1.00;1.00;;;;;;;;5483235;25;44014;-53
2024/04/18 14:10:48;;;;;;;;;3.00;3.00;;;;;;;;5478416;25;44316;-51
2024/04/18 14:13:13;;;;;;;;;2.67;2.67;;;;;;;;5464578;25;44027;-50
2024/04/18 14:15:48;;;;;;;;;3.00;3.00;;;;;;;;5476533;25;46099;-52
2024/04/18 14:20:57;;;;;;;;;3.67;3.67;;;;;;;;5495851;25;44024;-50
2024/04/18 14:23:22;;;;;;;;;4.00;3.00;;;;;;;;5498081;25;44028;-50
2024/04/18 14:25:47;;;;;;;;;4.00;4.00;;;;;;;;5499871;25;44816;-52
2024/04/18 14:28:13;;;;;;;;;48.33;40.00;;;;;;;;5507875;25;43949;-53
2024/04/18 14:30:38;;;;;;;;;5.67;5.67;;;;;;;;5483640;25;44124;-51
2024/04/18 14:33:03;;;;;;;;;3.67;3.67;;;;;;;;5460782;25;44435;-53
2024/04/18 14:35:29;;;;;;;;;4.00;4.00;;;;;;;;5487469;25;45622;-50
2024/04/18 14:37:54;;;;;;;;;4.00;3.00;;;;;;;;5493421;25;44149;-51
2024/04/18 14:40:19;;;;;;;;;3.00;3.00;;;;;;;;5482739;25;44099;-53